Mason Valley, Nevada Weather observations

Data are for observation ending at time listed.
 Day   Time    Ave.   Ave.  Ave.  Vector   Max.   Stn.    Total    Solar   Ave.  
  of    of     Air    Rel.  Wind   Wind    Wind   Baro.  Precip.   Rad.    Soil  
Year   Day     Temp.  Hum.  Speed  Dir.    Gust   Pres.                    Temp. 
2014   (PST)    F      %     mph   deg.    mph     mb.     in.     W/m2     F   
------------------------------------------------------------------------------
 107    0:40   39.7    46    3.1   177      5.3   866.1    0.00       0    64.6
 107    0:50   39.6    48    2.8   164      4.5   866.0    0.00       0    64.5
 107    1:00   40.0    46    2.6   178      3.8   866.0    0.00       0    64.3
 107    1:10   41.4    42    3.0   174      4.5   866.0    0.00       0    64.0
 107    1:20   40.0    45    3.5   168      4.3   866.0    0.00       0    63.7
 107    1:30   40.0    45    2.8   168      4.7   866.0    0.00       0    63.5
 107    1:40   41.8    45    3.5   141      4.3   865.9    0.00       0    63.3
 107    1:50   42.3    44    2.5   121      3.7   865.8    0.00       0    63.0
 107    2:00   40.9    45    1.6   190      3.6   865.9    0.00       0    62.8
 107    2:10   42.4    43    2.5   351      4.6   865.9    0.00       0    62.6
 107    2:20   41.5    45    2.5   354      3.9   866.0    0.00       0    62.4
 107    2:30   40.0    48    1.2   114      4.7   866.0    0.00       0    62.2
 107    2:40   39.5    51    0.0     0      0.0   865.9    0.00       0    62.2
 107    2:50   39.1    48    0.0     0      0.0   865.9    0.00       0    62.1
 107    3:00   37.7    50    2.8     9      4.2   865.9    0.00       0    62.0
 107    3:10   39.1    54    2.9   308      4.9   865.9    0.00       0    61.9
 107    3:20   40.5    52    4.2   292      6.3   865.9    0.00       0    61.6
 107    3:30   41.5    50    2.3   299      5.9   865.8    0.00       0    61.2
 107    3:40   41.4    49    1.4   296      2.2   865.8    0.00       0    61.0
 107    3:50   40.6    49    0.7   200      3.0   865.7    0.00       0    60.9
 107    4:00   39.8    51    0.0   200      0.9   865.7    0.00       0    60.9
 107    4:10   39.4    49    0.3   198      1.9   865.7    0.00       0    60.9
 107    4:20   37.9    50    2.8   154      4.9   865.7    0.00       0    60.9
 107    4:30   34.7    52    4.0   150      4.8   865.6    0.00       0    60.8
 107    4:40   34.1    55    3.1   192      3.7   865.6    0.00       0    60.8
 107    4:50   34.4    56    3.9   170      4.9   865.5    0.00       0    60.7
 107    5:00   36.0    56    5.4   149      6.8   865.5    0.00       0    60.5
 107    5:10   36.6    55    4.8   165      5.9   865.5    0.00       2    60.3
 107    5:20   38.0    52    3.9   161      5.1   865.5    0.00       5    59.9
 107    5:30   36.3    53    3.1   127      4.7   865.4    0.00      13    59.6
 107    5:40   36.5    55    3.5   145      5.7   865.3    0.00      32    59.4
 107    5:50   39.3    50    0.1   140      1.5   865.4    0.00      55    59.2
 107    6:00   39.7    50    0.7   258      3.1   865.5    0.00      84    58.9
 107    6:10   41.1    47    1.1   267      2.7   865.5    0.00      92    58.5
 107    6:20   43.8    43    0.0     0      0.0   865.6    0.00     147    58.2
 107    6:30   46.5    39    0.0     0      0.0   865.5    0.00     182    57.7
 107    6:40   49.3    36    0.0     0      0.0   865.6    0.00     224    57.3
 107    6:50   52.0    33    0.5   189      2.5   865.6    0.00     258    56.9
 107    7:00   52.2    33    1.4   148      2.9   865.6    0.00     293    56.6
 107    7:10   53.7    32    1.6    79      2.9   865.5    0.00     328    56.6
 107    7:20   54.6    32    2.1   117      3.5   865.4    0.00     363    56.5
 107    7:30   57.0    30    1.3   135      3.5   865.4    0.00     397    56.4
 107    7:40   59.2    28    0.7    69      3.3   865.3    0.00     432    56.4
 107    7:50   60.3    27    2.0   340      4.1   865.2    0.00     466    56.4
 107    8:00   59.9    28    0.7    11      3.8   865.1    0.00     499    56.4
 107    8:10   60.6    29    2.9   344      6.0   865.0    0.00     532    56.5
 107    8:20   59.3    32    3.3   353      6.8   864.9    0.00     563    56.7
 107    8:30   60.3    31    1.6   352      4.7   864.8    0.00     594    57.0
 107    8:40   61.7    30    2.5   324      5.7   864.7    0.00     625    57.2
 107    8:50   62.7    28    2.2   320      5.4   864.6    0.00     655    57.4
 107    9:00   63.4    26    1.9   302      4.6   864.5    0.00     685    57.5
 107    9:10   64.3    25    2.7   303      5.4   864.5    0.00     712    57.6
 107    9:20   64.8    24    3.1   217      5.3   864.4    0.00     738    57.7
 107    9:30   65.4    23    2.5   205      3.9   864.2    0.00     763    57.9
 107    9:40   66.2    22    3.2    53      6.0   864.2    0.00     787    58.0
 107    9:50   67.2    21    2.8    71      6.9   864.2    0.00     810    58.1
 107   10:00   67.1    21    4.1    99      7.5   864.0    0.00     831    58.3
 107   10:10   67.9    22    4.2    80      8.3   863.9    0.00     851    58.6
 107   10:20   68.8    21    3.3    37      7.2   863.9    0.00     872    58.8
 107   10:30   70.6    20    3.3   110      9.5   863.7    0.00     894    59.0
 107   10:40   70.1    20    4.9    77      8.4   863.5    0.00     919    59.2
 107   10:50   70.1    19    4.5   120      9.2   863.4    0.00     857    59.5
 107   11:00   71.3    19    4.6   103     11.5   863.2    0.00     896    59.8
 107   11:10   72.5    18    4.6   163      9.0   863.0    0.00     871    60.1
 107   11:20   72.6    18    5.2    80      9.6   862.9    0.00     816    60.3
 107   11:30   71.3    19    5.0    45      8.2   862.7    0.00     853    60.6
 107   11:40   72.8    18    2.7   105      7.5   862.6    0.00     893    60.9
 107   11:50   74.0    18    3.5    49      8.3   862.5    0.00     932    61.0
 107   12:00   73.7    18    5.2    35     11.3   862.3    0.00     953    61.2
 107   12:10   73.6    18    5.9    24      9.9   862.2    0.00     963    61.5
 107   12:20   74.4    18    6.5   354     13.2   862.2    0.00     939    61.8
 107   12:30   74.4    18    8.8     1     15.4   862.0    0.00     950    62.2
 107   12:40   75.4    18    5.5    11     11.5   861.8    0.00     917    62.6
 107   12:50   75.4    17    8.5   354     14.0   861.8    0.00     869    62.9
 107   13:00   75.7    17    7.8    28     15.2   861.6    0.00     857    63.3
 107   13:10   76.1    17    7.9    10     12.4   861.6    0.00     929    63.6
 107   13:20   76.6    17    7.1    28     11.8   861.4    0.00     869    63.8
 107   13:30   76.9    17    5.6     3     12.8   861.3    0.00     770    64.1
 107   13:40   77.3    16    6.4     5     11.0   861.2    0.00     606    64.4
 107   13:50   76.5    17    7.5     2     13.7   861.1    0.00     586    64.8
 107   14:00   77.6    17    4.7     1     10.4   860.9    0.00     715    65.2
 107   14:10   79.8    16    2.3   271      7.0   860.8    0.00     719    65.5
 107   14:20   79.4    17    9.6   254     25.2   860.6    0.00     816    65.6
 107   14:30   78.2    17   14.3   254     24.2   860.5    0.00     657    65.9
 107   14:40   77.5    17   14.4   258     25.4   860.5    0.00     583    66.6
 107   14:50   77.6    16   16.3   245     28.8   860.4    0.00     612    67.1
 107   15:00   76.9    16   14.1   249     25.0   860.3    0.00     463    67.4
 107   15:10   76.8    16   16.9   249     25.5   860.2    0.00     492    67.8
 107   15:20   76.8    15   13.9   252     27.5   860.2    0.00     582    68.0
 107   15:30   76.8    15   13.0   247     23.5   860.2    0.00     414    68.1
 107   15:40   76.3    16   13.5   256     24.3   860.1    0.00     521    68.2
 107   15:50   76.0    16   15.3   250     23.7   860.0    0.00     485    68.4
 107   16:00   75.9    16   14.1   244     23.7   860.0    0.00     371    68.6
 107   16:10   75.6    16   15.3   246     27.8   859.9    0.00     384    68.8
 107   16:20   75.1    16   19.1   244     30.7   859.8    0.00     294    68.9
 107   16:30   74.3    17   20.6   247     31.8   859.8    0.00     278    69.1
 107   16:40   73.8    18   19.7   248     30.6   859.9    0.00     237    69.3
 107   16:50   73.5    19   17.6   254     30.9   860.0    0.00     222    69.5
 107   17:00   73.1    19   18.1   246     26.7   860.1    0.00     188    69.5
 107   17:10   72.7    20   17.0   246     27.3   860.2    0.00     149    69.7
 107   17:20   72.1    21   17.1   246     27.9   860.2    0.00     119    69.7
 107   17:30   71.5    22   17.6   249     26.8   860.2    0.00      95    69.8
 107   17:40   71.3    23   13.3   252     24.1   860.4    0.00      91    69.8
 107   17:50   70.9    23   13.6   246     23.2   860.7    0.00      74    69.8
 107   18:00   70.6    23   11.2   236     19.4   860.8    0.00      51    69.8
 107   18:10   70.2    22   11.2   250     19.5   861.0    0.00      32    69.9
 107   18:20   69.7    23   11.2   250     17.7   861.2    0.00      18    69.8
 107   18:30   69.2    23    8.7   263     19.0   861.2    0.00       8    69.8
 107   18:40   68.9    24   11.9   265     21.0   861.2    0.00       2    69.8
 107   18:50   68.5    25   10.6   255     15.8   861.4    0.00       1    69.7
 107   19:00   68.0    26   11.2   254     18.2   861.5    0.00       0    69.7
 107   19:10   67.7    26    9.7   258     14.7   861.6    0.00       0    69.5
 107   19:20   67.5    28    8.3   272     14.1   861.8    0.00       0    69.4
 107   19:30   67.0    28    7.3   277     13.8   861.9    0.00       0    69.3
 107   19:40   66.4    28    6.2   277     13.7   862.1    0.00       0    69.3
 107   19:50   65.9    29    6.4   283     11.3   862.2    0.00       0    69.2
 107   20:00   65.7    30    8.7   282     14.8   862.3    0.00       0    69.1
 107   20:10   65.4    32   10.0   267     17.5   862.4    0.00       0    68.8
 107   20:20   65.2    32    9.8   268     17.7   862.5    0.00       0    68.7
 107   20:30   65.1    32    9.9   276     17.4   862.6    0.00       0    68.5
 107   20:40   64.8    33    9.4   263     16.5   862.7    0.00       0    68.3
 107   20:50   64.7    33   10.5   262     17.4   862.7    0.00       0    68.3
 107   21:00   64.5    33    8.6   261     13.2   862.7    0.00       0    68.1
 107   21:10   64.3    33    9.8   263     15.8   862.6    0.00       0    68.1
 107   21:20   64.1    32   10.4   267     18.2   862.5    0.00       0    67.9
 107   21:30   64.1    32   11.9   266     22.8   862.3    0.00       0    67.8
 107   21:40   64.0    32   12.9   262     21.5   862.3    0.00       0    67.6
 107   21:50   63.9    32   15.9   258     24.0   862.3    0.00       0    67.5
 107   22:00   63.9    31   14.1   253     26.0   862.2    0.00       0    67.3
 107   22:10   63.7    31   14.2   253     21.0   862.1    0.00       0    67.2
 107   22:20   63.5    31   13.5   252     25.0   862.0    0.00       0    67.1
 107   22:30   63.5    31   13.3   254     21.0   862.1    0.00       0    67.0
 107   22:40   63.5    31    9.9   245     21.4   862.2    0.00       0    66.9
 107   22:50   63.4    32    6.2   239     13.6   862.3    0.00       0    66.8
 107   23:00   63.0    32    6.0    54     15.0   862.5    0.00       0    66.8
 107   23:10   62.5    32    7.9    65     12.9   862.8    0.00       0    66.8
 107   23:20   62.6    33    2.0    88      5.2   863.0    0.00       0    66.7
 107   23:30   62.2    33    2.0   144      4.6   863.0    0.00       0    66.7
 107   23:40   62.5    32    2.2   327      5.8   863.1    0.00       0    66.6
 107   23:50   62.6    32    3.0   308      7.6   863.1    0.00       0    66.5
 108    0:00   63.0    30    9.4   322     16.0   863.0    0.00       0    66.3
 108    0:10   63.7    30    8.0   304     12.9   863.0    0.00       0    66.1
 108    0:20   62.9    30    6.2   293     11.4   863.0    0.00       0    65.9
 108    0:30   62.2    32    4.4    63     10.6   863.2    0.00       0    65.8

Return to Mason Valley, Nevada graphs page.


Western Regional Climate Center,wrcc@dri.edu